Time;durP1;ratioP1;P1;durP2;ratioP2;P2;SDS_P1;SDS_P2;PMS_P1;PMS_P2;Temp;Humidity;BMP_temperature;BMP_pressure;BME280_temperature;BME280_humidity;BME280_pressure;Samples;Min_cycle;Max_cycle;Signal;HPM_P1;HPM_P2
2022/06/06 00:01:43;;;;;;;10.82;2.85;;;;;;;11.32;79.50;95736.84;1769395;81;21001;-65
2022/06/06 00:04:10;;;;;;;4.65;2.55;;;;;;;11.28;80.18;95735.61;1769550;81;21008;-65
2022/06/06 00:06:39;;;;;;;2.40;2.20;;;;;;;11.25;80.53;95735.22;1769548;81;21020;-65
2022/06/06 00:09:08;;;;;;;3.05;2.12;;;;;;;11.20;80.15;95727.38;1769585;81;21044;-65
2022/06/06 00:11:36;;;;;;;2.30;2.10;;;;;;;11.19;79.54;95726.09;1769619;81;20993;-65
2022/06/06 00:14:04;;;;;;;3.35;2.30;;;;;;;11.11;81.00;95719.61;1769657;81;21032;-65
2022/06/06 00:16:31;;;;;;;4.35;2.40;;;;;;;11.09;81.58;95713.94;1769469;81;21052;-65
2022/06/06 00:18:58;;;;;;;2.85;2.62;;;;;;;11.08;80.36;95716.17;1769579;81;21001;-65
2022/06/06 00:21:25;;;;;;;4.35;2.90;;;;;;;11.09;80.58;95719.22;1769754;81;20969;-64
2022/06/06 00:23:53;;;;;;;3.40;3.00;;;;;;;11.09;80.89;95716.58;1769550;81;21471;-64
2022/06/06 00:26:20;;;;;;;6.95;3.25;;;;;;;11.05;80.64;95717.96;1769643;81;21458;-64
2022/06/06 00:28:49;;;;;;;3.50;2.70;;;;;;;11.07;80.28;95717.95;1769669;81;20985;-65
2022/06/06 00:36:46;;;;;;;3.40;3.10;;;;;;;10.92;80.34;95722.19;1769633;81;21008;-65
2022/06/06 00:39:17;;;;;;;2.42;2.22;;;;;;;10.88;80.39;95724.45;1769281;81;21087;-65
2022/06/06 00:41:49;;;;;;;2.50;2.30;;;;;;;10.81;80.59;95727.21;1769706;81;21471;-65
2022/06/06 00:44:20;;;;;;;2.50;2.30;;;;;;;10.75;80.43;95719.38;1769496;81;21494;-65
2022/06/06 00:46:58;;;;;;;3.42;2.50;;;;;;;10.66;80.84;95720.88;1768798;81;20996;-65
2022/06/06 00:49:38;;;;;;;4.47;2.52;;;;;;;10.63;80.96;95716.08;1761887;81;21482;-65
2022/06/06 00:52:10;;;;;;;2.17;2.00;;;;;;;10.63;80.85;95706.84;1769556;81;21013;-65
2022/06/06 00:54:38;;;;;;;2.25;1.95;;;;;;;10.64;80.32;95698.91;1769703;81;21048;-65
2022/06/06 00:57:13;;;;;;;4.12;1.92;;;;;;;10.61;80.66;95689.73;1769754;81;20993;-64
2022/06/06 00:59:40;;;;;;;5.08;2.33;;;;;;;10.56;80.67;95688.49;1769425;81;21029;-65
2022/06/06 01:02:10;;;;;;;2.67;2.20;;;;;;;10.57;81.19;95684.08;1769317;81;21047;-65
2022/06/06 01:04:39;;;;;;;2.98;2.72;;;;;;;10.50;81.85;95683.76;1769458;81;21017;-64
2022/06/06 01:07:07;;;;;;;2.02;1.92;;;;;;;10.48;81.06;95685.13;1766545;81;21025;-65
2022/06/06 01:09:36;;;;;;;3.62;2.25;;;;;;;10.44;82.56;95678.60;1761100;81;21526;-64
2022/06/06 01:12:08;;;;;;;2.42;2.22;;;;;;;10.51;81.88;95678.92;1761306;81;21041;-64
2022/06/06 01:14:40;;;;;;;2.72;2.50;;;;;;;10.48;81.82;95678.95;1761538;81;21009;-65
2022/06/06 01:17:18;;;;;;;3.20;2.37;;;;;;;10.44;81.39;95672.87;1760787;81;21029;-64
2022/06/06 01:20:17;;;;;;;2.55;2.35;;;;;;;10.51;81.21;95675.83;1761217;81;21056;-65
2022/06/06 01:23:21;;;;;;;8.35;2.35;;;;;;;10.48;80.62;95670.61;1761517;81;21017;-65
2022/06/06 01:26:09;;;;;;;4.35;2.45;;;;;;;10.48;80.57;95665.76;1761618;81;20970;-65
2022/06/06 01:28:53;;;;;;;2.47;2.10;;;;;;;10.53;81.01;95658.64;1761011;81;20997;-64
2022/06/06 01:31:36;;;;;;;2.62;2.30;;;;;;;10.48;80.63;95657.42;1761580;81;21048;-64
2022/06/06 01:34:06;;;;;;;3.30;2.52;;;;;;;10.44;80.84;95661.00;1761177;81;21057;-64
2022/06/06 01:36:36;;;;;;;2.45;2.25;;;;;;;10.45;81.38;95665.82;1761412;81;21036;-65
2022/06/06 01:39:07;;;;;;;3.55;2.15;;;;;;;10.44;80.90;95666.73;1761435;81;20982;-65
2022/06/06 01:41:50;;;;;;;5.10;2.40;;;;;;;10.40;80.60;95663.25;1761513;81;21065;-64
2022/06/06 01:44:25;;;;;;;3.25;2.58;;;;;;;10.43;80.78;95663.20;1761308;81;21448;-65
2022/06/06 01:46:54;;;;;;;2.52;2.33;;;;;;;10.44;80.48;95666.27;1761194;81;21001;-65
2022/06/06 01:49:23;;;;;;;2.55;2.35;;;;;;;10.37;80.81;95665.95;1756805;81;21413;-65
2022/06/06 01:52:04;;;;;;;4.50;2.92;;;;;;;10.29;80.71;95659.94;1761448;81;21502;-65
2022/06/06 01:54:31;;;;;;;2.30;2.10;;;;;;;10.24;81.06;95664.38;1761836;81;21040;-65
2022/06/06 01:57:01;;;;;;;2.30;2.10;;;;;;;10.24;80.62;95657.80;1761714;81;20973;-65
2022/06/06 01:59:28;;;;;;;3.30;2.30;;;;;;;10.13;80.10;95653.56;1761522;81;21502;-65
2022/06/06 02:01:55;;;;;;;2.33;2.12;;;;;;;10.15;80.36;95646.51;1761351;81;20997;-65
2022/06/06 02:04:22;;;;;;;4.05;2.90;;;;;;;10.08;80.23;95649.23;1761414;81;21025;-65
2022/06/06 02:06:48;;;;;;;4.78;2.35;;;;;;;10.01;80.07;95644.98;1760410;81;21021;-65
2022/06/06 02:09:15;;;;;;;7.05;2.42;;;;;;;10.01;80.45;95649.80;1755687;81;21033;-64
2022/06/06 02:11:42;;;;;;;3.30;2.20;;;;;;;9.97;80.33;95651.59;1756208;82;21008;-65
2022/06/06 02:14:09;;;;;;;2.72;2.22;;;;;;;9.88;81.16;95651.75;1756206;82;21105;-65
2022/06/06 02:16:36;;;;;;;2.77;2.58;;;;;;;9.86;80.80;95646.95;1755972;82;20997;-65
2022/06/06 02:19:04;;;;;;;3.22;2.92;;;;;;;9.85;80.92;95650.91;1755914;81;21000;-65
2022/06/06 02:21:31;;;;;;;3.08;2.77;;;;;;;9.80;81.08;95645.70;1756301;82;20985;-64
2022/06/06 02:23:57;;;;;;;3.67;3.00;;;;;;;9.80;81.32;95649.66;1755906;81;20974;-65
2022/06/06 02:26:24;;;;;;;4.40;3.22;;;;;;;9.74;80.71;95646.67;1756161;82;21021;-65
2022/06/06 02:28:51;;;;;;;3.40;3.03;;;;;;;9.78;80.93;95645.30;1755902;82;21049;-64
2022/06/06 02:31:17;;;;;;;2.70;2.50;;;;;;;9.85;80.51;95640.37;1756214;82;21436;-65
2022/06/06 02:33:44;;;;;;;3.10;2.80;;;;;;;9.81;80.79;95642.19;1755956;81;21028;-65
2022/06/06 02:36:11;;;;;;;3.47;2.73;;;;;;;9.72;80.53;95643.18;1756349;81;20992;-65
2022/06/06 02:38:38;;;;;;;3.43;2.83;;;;;;;9.69;81.86;95646.31;1756086;81;21010;-65
2022/06/06 02:41:08;;;;;;;4.33;2.90;;;;;;;9.66;82.10;95651.19;1755970;82;21511;-65
2022/06/06 02:43:42;;;;;;;3.30;2.62;;;;;;;9.63;82.26;95645.10;1755689;81;21073;-64
2022/06/06 02:46:11;;;;;;;2.73;2.47;;;;;;;9.58;82.54;95644.30;1756040;81;21496;-65
2022/06/06 02:48:38;;;;;;;7.67;3.87;;;;;;;9.54;83.17;95645.62;1755994;81;21459;-64
2022/06/06 02:51:05;;;;;;;5.73;2.70;;;;;;;9.58;83.02;95651.75;1756002;82;21013;-65
2022/06/06 02:53:32;;;;;;;2.77;2.40;;;;;;;9.61;82.74;95642.93;1755962;81;20997;-64
2022/06/06 02:55:59;;;;;;;5.75;2.75;;;;;;;9.70;82.57;95645.41;1756209;82;20989;-65
2022/06/06 02:58:27;;;;;;;5.00;2.43;;;;;;;9.77;82.21;95656.75;1756033;81;21005;-64
2022/06/06 03:01:05;;;;;;;2.77;2.57;;;;;;;9.73;81.93;95646.71;1755734;82;21563;-65
2022/06/06 03:03:33;;;;;;;4.67;2.20;;;;;;;9.75;81.99;95647.53;1755133;82;21571;-65
2022/06/06 03:06:29;;;;;;;3.47;2.43;;;;;;;9.73;81.72;95648.03;1756033;81;21009;-65
2022/06/06 03:09:10;;;;;;;2.90;2.60;;;;;;;9.70;81.36;95655.53;1756115;81;21025;-65
2022/06/06 03:12:00;;;;;;;4.03;3.45;;;;;;;9.68;81.46;95663.03;1755588;82;20978;-65
2022/06/06 03:15:17;;;;;;;4.47;4.03;;;;;;;9.74;81.63;95651.94;1756027;82;21041;-65
2022/06/06 03:21:07;;;;;;;4.15;3.60;;;;;;;9.99;82.15;95646.77;1756021;82;20997;-64
2022/06/06 03:23:45;;;;;;;2.92;2.65;;;;;;;10.11;81.74;95654.48;1755771;82;21574;-64
2022/06/06 03:26:35;;;;;;;7.47;2.90;;;;;;;10.18;82.13;95655.67;1755972;81;20989;-64
2022/06/06 03:29:42;;;;;;;3.00;2.70;;;;;;;10.24;82.13;95669.20;1755207;82;21535;-64
2022/06/06 03:32:29;;;;;;;3.72;3.00;;;;;;;10.36;82.69;95665.54;1756091;82;20997;-65
2022/06/06 03:35:10;;;;;;;2.62;2.42;;;;;;;10.47;82.15;95659.62;1755775;82;21048;-64
2022/06/06 03:38:06;;;;;;;3.80;2.60;;;;;;;10.58;82.18;95662.06;1755062;82;20962;-65
2022/06/06 03:40:40;;;;;;;2.92;2.62;;;;;;;10.69;81.78;95663.22;1755939;82;21009;-65
2022/06/06 03:43:29;;;;;;;5.37;2.92;;;;;;;10.77;81.12;95678.00;1756180;82;21514;-65
2022/06/06 03:46:14;;;;;;;5.47;4.25;;;;;;;10.78;80.68;95673.13;1749727;82;21005;-65
2022/06/06 03:49:16;;;;;;;4.40;4.00;;;;;;;10.89;81.00;95674.28;1718087;83;20963;-65
2022/06/06 03:51:51;;;;;;;4.15;3.27;;;;;;;11.02;80.58;95670.50;1798985;80;21035;-65
2022/06/06 03:54:26;;;;;;;3.55;3.20;;;;;;;11.10;80.55;95672.98;1799104;80;21035;-65
2022/06/06 03:56:58;;;;;;;4.37;3.15;;;;;;;11.20;80.17;95674.55;1799152;80;21126;-65
2022/06/06 03:59:28;;;;;;;4.05;3.33;;;;;;;11.18;79.81;95682.08;1796892;80;21063;-65
2022/06/06 04:02:00;;;;;;;6.17;4.22;;;;;;;11.23;80.40;95675.80;1798656;80;21501;-65
2022/06/06 04:04:30;;;;;;;3.72;3.42;;;;;;;11.37;80.27;95678.19;1799030;80;20981;-65
2022/06/06 04:06:58;;;;;;;3.50;3.20;;;;;;;11.34;79.40;95676.03;1799412;80;21000;-65
2022/06/06 04:09:33;;;;;;;4.28;3.87;;;;;;;11.35;79.71;95676.02;1802386;80;21046;-65
2022/06/06 04:12:35;;;;;;;4.30;3.90;;;;;;;11.40;80.00;95680.75;1802817;79;21026;-64
2022/06/06 04:15:34;;;;;;;5.47;4.08;;;;;;;11.51;79.95;95678.34;1802073;80;21075;-65
2022/06/06 04:18:09;;;;;;;4.83;3.00;;;;;;;11.59;79.93;95680.36;1796760;80;20988;-65
2022/06/06 04:21:10;;;;;;;4.40;3.50;;;;;;;11.69;79.94;95682.80;1802715;79;21035;-65
2022/06/06 04:24:14;;;;;;;5.20;3.47;;;;;;;11.80;79.99;95684.34;1802649;79;21000;-65
2022/06/06 04:26:49;;;;;;;3.70;3.40;;;;;;;11.91;79.95;95685.85;1802356;80;21501;-65
2022/06/06 04:29:45;;;;;;;3.95;3.30;;;;;;;12.04;79.77;95684.26;1802346;80;21508;-65
2022/06/06 04:32:46;;;;;;;4.05;3.15;;;;;;;12.16;79.68;95687.95;1802350;80;21064;-65
2022/06/06 04:35:32;;;;;;;3.40;3.00;;;;;;;12.31;79.55;95690.23;1802423;80;21490;-64
2022/06/06 04:38:13;;;;;;;4.55;3.47;;;;;;;12.45;79.12;95685.94;1802147;80;20991;-64
2022/06/06 04:40:54;;;;;;;6.15;3.30;;;;;;;12.58;78.55;95688.30;1802408;79;21534;-65
2022/06/06 04:43:43;;;;;;;57.43;18.40;;;;;;;12.72;78.04;95687.47;1802220;79;21000;-65
2022/06/06 04:46:24;;;;;;;26.45;9.08;;;;;;;12.89;77.70;95681.75;1802338;80;21054;-65
2022/06/06 04:48:52;;;;;;;14.50;6.78;;;;;;;13.10;78.13;95677.64;1802648;79;21000;-65
2022/06/06 04:51:21;;;;;;;6.10;3.87;;;;;;;13.31;78.00;95677.11;1802365;79;20999;-65
2022/06/06 04:53:53;;;;;;;3.37;2.80;;;;;;;13.49;77.34;95674.39;1802477;80;21003;-65
2022/06/06 04:56:20;;;;;;;5.92;2.83;;;;;;;13.64;76.79;95675.73;1802329;80;21007;-64
2022/06/06 04:58:51;;;;;;;7.60;3.10;;;;;;;13.81;75.37;95675.23;1802565;80;21450;-65
2022/06/06 05:01:19;;;;;;;14.53;5.95;;;;;;;13.90;75.62;95674.94;1802416;79;21529;-67
2022/06/06 05:03:46;;;;;;;7.05;3.20;;;;;;;14.04;74.82;95678.05;1800799;79;20998;-65
2022/06/06 05:06:45;;;;;;;8.40;3.20;;;;;;;14.18;74.87;95674.09;1773158;80;21008;-65
2022/06/06 05:09:26;;;;;;;4.77;2.77;;;;;;;14.34;75.22;95680.67;1805848;79;21533;-66
2022/06/06 05:12:14;;;;;;;4.03;2.80;;;;;;;14.53;74.65;95682.28;1806039;79;21544;-65
2022/06/06 05:15:07;;;;;;;5.50;2.67;;;;;;;14.67;73.68;95682.70;1807139;79;20987;-67
2022/06/06 05:18:17;;;;;;;3.95;2.58;;;;;;;14.80;73.54;95680.51;1807325;79;21062;-66
2022/06/06 05:21:02;;;;;;;2.45;2.25;;;;;;;15.02;73.70;95681.09;1783858;79;21133;-65
2022/06/06 05:23:55;;;;;;;3.25;2.00;;;;;;;15.14;72.80;95688.20;1806708;79;20979;-66
2022/06/06 05:26:37;;;;;;;;;;;;;;;15.28;72.25;95698.33;1808309;79;21206;-66
2022/06/06 05:29:15;;;;;;;3.37;2.42;;;;;;;15.40;72.25;95695.71;1810694;77;20214;-65
2022/06/06 05:32:30;;;;;;;3.87;2.27;;;;;;;15.51;71.80;95690.00;1829721;77;21030;-68
2022/06/06 05:35:18;;;;;;;4.12;2.65;;;;;;;15.64;71.65;95687.75;1832436;77;21049;-67
2022/06/06 05:37:53;;;;;;;4.72;2.30;;;;;;;15.77;71.27;95685.95;1829402;77;21105;-66
2022/06/06 05:40:43;;;;;;;4.58;2.50;;;;;;;15.90;70.45;95686.80;1830684;77;20934;-68
2022/06/06 05:43:27;;;;;;;3.22;2.10;;;;;;;15.90;70.45;95686.80;1794532;76;21080;-68
2022/06/06 05:46:22;;;;;;;5.15;2.30;;;;;;;16.04;69.33;95696.47;1830087;77;21001;-69
2022/06/06 05:49:16;;;;;;;2.70;2.50;;;;;;;16.04;69.33;95696.47;1830606;77;20972;-66
2022/06/06 05:52:00;;;;;;;2.30;2.10;;;;;;;16.12;69.26;95694.84;1837043;77;21093;-67
2022/06/06 05:54:44;;;;;;;2.30;2.10;;;;;;;16.08;69.05;95688.78;1852708;77;21042;-67
2022/06/06 05:57:22;;;;;;;11.33;4.70;;;;;;;16.20;68.62;95694.06;1853709;77;20983;-68
2022/06/06 06:00:19;;;;;;;18.67;5.67;;;;;;;16.32;69.07;95700.72;1843410;77;21422;-68
2022/06/06 06:03:09;;;;;;;6.08;3.02;;;;;;;16.31;68.25;95697.19;1811877;78;21034;-68
2022/06/06 06:06:05;;;;;;;2.30;2.10;;;;;;;16.41;68.07;95700.36;1839272;78;21004;-67
2022/06/06 06:08:52;;;;;;;6.03;3.20;;;;;;;16.48;68.37;95697.86;1838066;78;21023;-68
2022/06/06 06:11:53;;;;;;;8.03;2.40;;;;;;;16.60;68.15;95708.00;1834841;78;21039;-68
2022/06/06 06:14:47;;;;;;;3.65;2.00;;;;;;;16.71;68.64;95706.72;1834156;78;21521;-68
2022/06/06 06:17:15;;;;;;;2.90;2.02;;;;;;;16.82;68.00;95705.36;1828960;78;21031;-66
2022/06/06 06:20:04;;;;;;;2.05;1.85;;;;;;;16.96;67.64;95707.47;1795085;78;20965;-67
2022/06/06 06:22:42;;;;;;;1.98;1.87;;;;;;;17.06;68.76;95699.95;1821693;77;21072;-65
2022/06/06 06:25:10;;;;;;;2.85;2.10;;;;;;;17.22;67.57;95709.49;1813785;78;21030;-66
2022/06/06 06:27:38;;;;;;;1.75;1.65;;;;;;;17.32;67.65;95717.50;1814096;77;20945;-67
2022/06/06 06:30:09;;;;;;;1.65;1.55;;;;;;;17.44;66.51;95710.77;1828065;78;20948;-66
2022/06/06 06:33:05;;;;;;;2.33;1.95;;;;;;;17.52;66.64;95710.82;1834472;78;20959;-67
2022/06/06 06:35:46;;;;;;;3.15;2.00;;;;;;;17.60;66.59;95707.81;1834159;78;20984;-67
2022/06/06 06:38:39;;;;;;;2.23;2.00;;;;;;;17.72;66.96;95699.73;1832877;78;21327;-66
2022/06/06 06:41:26;;;;;;;2.22;1.80;;;;;;;17.88;67.25;95702.13;1832367;78;21015;-68
2022/06/06 06:44:12;;;;;;;1.70;1.60;;;;;;;18.03;66.50;95699.23;1835383;78;21051;-68
2022/06/06 06:46:52;;;;;;;4.58;2.02;;;;;;;18.11;66.17;95693.53;1833696;78;21050;-68
2022/06/06 06:49:41;;;;;;;2.00;1.80;;;;;;;18.15;66.04;95689.31;1833316;78;21071;-68
2022/06/06 06:52:34;;;;;;;2.02;1.75;;;;;;;18.24;65.76;95685.80;1833768;78;20995;-69
2022/06/06 06:55:48;;;;;;;2.12;1.90;;;;;;;18.28;64.38;95674.05;1833236;78;21083;-66
2022/06/06 06:58:32;;;;;;;1.82;1.72;;;;;;;18.39;65.40;95678.39;1835345;78;21489;-66
2022/06/06 07:01:12;;;;;;;3.12;2.00;;;;;;;18.50;65.29;95681.91;1744651;82;21083;-70
2022/06/06 07:09:57;;;;;;;;;;;;;;;18.75;64.65;95690.48;1792203;80;21057;-69
2022/06/06 07:12:47;;;;;;;3.40;2.00;;;;;;;18.85;64.91;95688.23;1786011;80;20120;-67
2022/06/06 07:15:48;;;;;;;2.10;1.82;;;;;;;18.97;65.07;95686.25;1786122;80;21040;-67
2022/06/06 07:18:18;;;;;;;1.80;1.70;;;;;;;19.15;64.66;95686.27;1787032;80;21124;-67
2022/06/06 07:20:48;;;;;;;2.65;1.80;;;;;;;19.27;63.51;95692.81;1786525;80;21558;-68
2022/06/06 07:23:16;;;;;;;3.22;1.90;;;;;;;19.31;63.76;95693.92;1787117;80;21001;-67
2022/06/06 07:25:48;;;;;;;3.00;1.80;;;;;;;19.41;63.71;95688.48;1787724;80;21024;-67
2022/06/06 07:28:19;;;;;;;5.55;1.98;;;;;;;19.54;63.68;95686.52;1786890;80;21553;-67
2022/06/06 07:31:03;;;;;;;3.42;1.90;;;;;;;19.68;63.43;95686.69;1786612;80;21518;-66
2022/06/06 07:33:47;;;;;;;1.95;1.80;;;;;;;19.83;62.66;95687.21;1786357;80;21123;-64
2022/06/06 07:36:25;;;;;;;1.90;1.80;;;;;;;19.94;62.21;95687.10;1785559;80;21065;-67
2022/06/06 07:39:04;;;;;;;1.90;1.80;;;;;;;20.08;62.89;95689.43;1785372;80;21155;-66
2022/06/06 07:42:01;;;;;;;2.15;1.60;;;;;;;20.20;61.75;95696.39;1786134;80;21076;-67
2022/06/06 07:44:43;;;;;;;5.90;1.77;;;;;;;20.18;61.96;95695.12;1786553;80;21056;-68
2022/06/06 07:47:28;;;;;;;2.13;1.70;;;;;;;20.29;62.11;95701.25;1786860;80;21021;-68
2022/06/06 07:50:05;;;;;;;1.70;1.60;;;;;;;20.47;61.87;95689.98;1772245;80;21328;-68
2022/06/06 07:52:59;;;;;;;3.05;1.80;;;;;;;20.63;62.39;95690.86;1786075;80;21025;-70
2022/06/06 07:55:41;;;;;;;2.22;1.70;;;;;;;20.76;62.07;95692.36;1785641;80;21125;-69
2022/06/06 07:58:21;;;;;;;2.80;1.70;;;;;;;20.93;60.91;95689.58;1783683;80;21037;-68
2022/06/06 08:00:53;;;;;;;2.80;1.90;;;;;;;21.01;60.38;95690.95;1785566;80;21072;-66
2022/06/06 08:04:00;;;;;;;3.77;1.90;;;;;;;21.12;60.42;95690.72;1752734;82;21098;-69
2022/06/06 08:06:53;;;;;;;3.20;1.98;;;;;;;21.30;61.02;95686.08;1786668;80;20974;-66
2022/06/06 08:09:28;;;;;;;2.75;1.67;;;;;;;21.48;60.46;95681.46;1739945;81;21010;-67
2022/06/06 08:12:39;;;;;;;2.98;1.80;;;;;;;21.54;58.81;95676.19;1763602;81;21044;-66
2022/06/06 08:15:14;;;;;;;2.30;2.10;;;;;;;21.59;59.05;95674.09;1760551;81;21554;-65
2022/06/06 08:18:01;;;;;;;3.72;1.62;;;;;;;21.80;59.43;95675.48;1650750;83;21525;-66
2022/06/06 08:20:57;;;;;;;1.75;1.65;;;;;;;21.97;58.68;95679.81;1711211;82;21027;-67
2022/06/06 08:23:26;;;;;;;3.08;1.75;;;;;;;22.06;58.13;95679.70;1744625;82;21608;-67
2022/06/06 08:25:55;;;;;;;1.87;1.77;;;;;;;22.14;56.01;95673.36;1745466;82;21016;-67
2022/06/06 08:28:22;;;;;;;1.72;1.62;;;;;;;22.12;56.72;95672.59;1745381;82;21051;-69
2022/06/06 08:30:49;;;;;;;1.60;1.50;;;;;;;22.21;56.66;95668.02;1744622;82;21059;-66
2022/06/06 08:33:16;;;;;;;1.87;1.37;;;;;;;22.37;56.82;95672.41;1745406;82;21587;-66
2022/06/06 08:36:00;;;;;;;1.40;1.30;;;;;;;22.57;57.14;95666.61;1741676;82;21047;-68
2022/06/06 08:38:44;;;;;;;1.82;1.50;;;;;;;22.78;57.35;95676.92;1713717;83;21072;-67
2022/06/06 08:41:51;;;;;;;3.42;1.55;;;;;;;22.97;55.35;95681.97;1713281;83;21205;-65
2022/06/06 08:44:44;;;;;;;2.47;1.45;;;;;;;23.11;55.99;95681.47;1713822;82;21183;-69
2022/06/06 08:47:50;;;;;;;2.27;1.55;;;;;;;23.30;55.04;95678.87;1714816;83;21085;-66
2022/06/06 08:50:48;;;;;;;1.95;1.45;;;;;;;23.42;53.79;95679.39;1713476;83;21619;-66
2022/06/06 08:53:43;;;;;;;1.40;1.30;;;;;;;23.50;53.32;95676.17;1714839;84;21034;-69
2022/06/06 08:56:46;;;;;;;3.55;1.40;;;;;;;23.55;54.53;95674.88;1715129;83;21007;-69
2022/06/06 08:59:49;;;;;;;2.55;1.52;;;;;;;23.59;52.63;95666.13;1714358;83;21080;-67
2022/06/06 09:02:56;;;;;;;3.20;1.40;;;;;;;23.71;54.19;95665.28;1715387;84;21069;-68
2022/06/06 09:05:50;;;;;;;2.60;1.40;;;;;;;23.82;52.37;95667.25;1718046;82;21124;-68
2022/06/06 09:08:45;;;;;;;3.27;1.27;;;;;;;23.91;54.58;95667.08;1744323;82;21039;-67
2022/06/06 09:11:40;;;;;;;2.05;1.55;;;;;;;24.06;52.25;95671.87;1776275;81;21571;-68
2022/06/06 09:14:38;;;;;;;1.20;1.10;;;;;;;24.24;52.52;95683.17;1828735;78;21082;-68
2022/06/06 09:17:10;;;;;;;1.47;1.20;;;;;;;24.41;50.63;95671.55;1829406;78;21450;-68
2022/06/06 09:19:59;;;;;;;3.55;1.20;;;;;;;24.28;48.79;95684.20;1828067;78;20999;-67
2022/06/06 09:22:40;;;;;;;2.10;1.20;;;;;;;24.24;48.97;95675.97;1829268;78;20964;-68
2022/06/06 09:25:37;;;;;;;1.82;1.37;;;;;;;24.23;50.15;95676.07;1829619;78;21019;-68
2022/06/06 09:28:50;;;;;;;2.52;1.52;;;;;;;24.51;50.30;95672.27;1829621;78;21038;-68
2022/06/06 09:31:43;;;;;;;1.22;1.12;;;;;;;24.65;48.12;95673.98;1827828;78;21047;-68
2022/06/06 09:34:50;;;;;;;1.98;1.10;;;;;;;24.60;48.86;95669.77;1831299;78;21015;-68
2022/06/06 09:37:37;;;;;;;1.20;1.10;;;;;;;24.74;48.60;95666.54;1829553;78;21035;-68
2022/06/06 09:40:30;;;;;;;1.25;0.93;;;;;;;24.86;48.42;95675.58;1795411;78;21019;-68
2022/06/06 09:43:14;;;;;;;1.12;1.02;;;;;;;25.01;47.47;95671.73;1829293;78;21547;-68
2022/06/06 09:46:35;;;;;;;2.52;1.00;;;;;;;24.63;45.32;95674.58;1829460;78;21509;-68
2022/06/06 09:49:07;;;;;;;2.20;1.10;;;;;;;24.49;47.88;95666.98;1829752;78;21517;-68
2022/06/06 09:51:56;;;;;;;1.12;0.88;;;;;;;24.77;48.31;95673.94;1829336;78;21466;-68
2022/06/06 10:01:10;;;;;;;1.00;0.90;;;;;;;24.90;43.53;95665.80;1829247;78;21019;-68
2022/06/06 10:04:08;;;;;;;1.40;1.05;;;;;;;24.98;45.00;95674.17;1829674;78;20977;-68
2022/06/06 10:06:55;;;;;;;1.90;0.90;;;;;;;25.16;44.28;95657.57;1829419;78;21035;-66
2022/06/06 10:09:46;;;;;;;5.33;1.05;;;;;;;25.42;44.96;95661.86;1831353;78;21067;-67
2022/06/06 10:12:48;;;;;;;1.00;1.00;;;;;;;25.50;43.90;95662.63;1840223;78;21038;-67
2022/06/06 10:15:41;;;;;;;1.00;0.90;;;;;;;25.51;43.06;95656.77;1840723;78;21003;-67
2022/06/06 10:18:22;;;;;;;0.90;0.90;;;;;;;25.68;44.70;95657.17;1840579;78;21063;-67
2022/06/06 10:21:03;;;;;;;1.07;1.00;;;;;;;25.94;45.86;95652.09;1839943;78;21032;-68
2022/06/06 10:23:53;;;;;;;2.60;0.90;;;;;;;26.08;45.18;95653.19;1840730;78;20968;-68
2022/06/06 10:26:49;;;;;;;1.98;0.80;;;;;;;26.19;41.62;95661.83;1840532;78;21532;-68
2022/06/06 10:30:11;;;;;;;2.05;1.00;;;;;;;26.21;41.51;95658.02;1837272;78;20967;-68
2022/06/06 10:33:18;;;;;;;1.75;1.10;;;;;;;26.18;42.97;95658.73;1785949;78;21035;-68
2022/06/06 10:35:56;;;;;;;1.47;1.10;;;;;;;26.35;42.11;95654.19;1840700;78;21018;-68
2022/06/06 10:38:46;;;;;;;3.45;0.90;;;;;;;26.16;41.35;95657.99;1799271;78;21517;-68
2022/06/06 10:42:03;;;;;;;3.10;1.07;;;;;;;26.33;41.03;95655.69;1840543;78;21067;-67
2022/06/06 10:44:36;;;;;;;1.40;0.98;;;;;;;26.55;41.97;95650.77;1840849;78;21034;-67
2022/06/06 10:47:17;;;;;;;1.22;1.17;;;;;;;26.75;41.33;95658.61;1840818;78;21017;-67
2022/06/06 10:50:14;;;;;;;2.35;1.00;;;;;;;26.90;41.29;95644.30;1840422;78;20972;-68
2022/06/06 10:52:52;;;;;;;1.10;1.10;;;;;;;27.18;41.21;95648.30;1840790;78;20976;-68
2022/06/06 10:55:39;;;;;;;1.10;0.93;;;;;;;27.50;40.47;95653.36;1840753;78;21509;-68
2022/06/06 10:58:56;;;;;;;0.93;0.90;;;;;;;27.87;39.34;95652.45;1841020;78;21481;-68
2022/06/06 11:01:54;;;;;;;2.05;0.88;;;;;;;28.00;37.64;95656.31;1840696;78;21750;-68
2022/06/06 11:04:29;;;;;;;1.37;0.88;;;;;;;28.03;39.70;95647.40;1840908;78;20987;-68
2022/06/06 11:07:38;;;;;;;0.80;0.80;;;;;;;28.51;40.33;95646.45;1839748;78;21004;-67
2022/06/06 11:10:28;;;;;;;1.25;1.00;;;;;;;28.41;36.20;95647.22;1835907;78;22186;-67
2022/06/06 11:13:14;;;;;;;1.57;1.00;;;;;;;27.86;36.26;95648.00;1831284;78;21034;-68
2022/06/06 11:16:24;;;;;;;2.10;1.12;;;;;;;27.57;37.84;95658.13;1830354;78;21078;-67
2022/06/06 11:19:22;;;;;;;2.55;0.82;;;;;;;27.83;38.31;95649.13;1737882;82;21057;-67
2022/06/06 11:22:14;;;;;;;2.10;1.02;;;;;;;28.25;38.58;95644.17;1787008;80;21441;-67
2022/06/06 11:24:47;;;;;;;1.87;1.12;;;;;;;28.16;37.45;95651.75;1786479;80;20991;-68
2022/06/06 11:27:32;;;;;;;1.25;1.00;;;;;;;27.86;38.81;95644.44;1785821;80;21010;-68
2022/06/06 11:30:46;;;;;;;2.67;1.00;;;;;;;27.67;38.49;95655.50;1787018;80;21058;-68
2022/06/06 11:33:35;;;;;;;0.85;0.85;;;;;;;27.61;39.10;95648.72;1765247;80;21485;-68
2022/06/06 11:36:46;;;;;;;2.12;1.05;;;;;;;27.86;37.28;95638.52;1743717;80;20999;-68
2022/06/06 11:39:50;;;;;;;1.45;0.90;;;;;;;28.07;38.35;95652.05;1751737;80;21046;-68
2022/06/06 11:42:37;;;;;;;3.77;1.10;;;;;;;28.07;36.64;95647.98;1787657;80;21002;-68
2022/06/06 11:45:39;;;;;;;1.27;1.17;;;;;;;28.12;39.41;95653.86;1787127;80;20999;-68
2022/06/06 11:49:03;;;;;;;7.95;1.52;;;;;;;28.35;37.62;95646.90;1786891;80;21129;-67
2022/06/06 11:52:10;;;;;;;3.47;1.10;;;;;;;28.32;38.40;95652.10;1786919;80;20994;-67
2022/06/06 11:55:10;;;;;;;1.02;1.00;;;;;;;28.40;38.83;95634.66;1787205;80;21023;-67
2022/06/06 11:58:22;;;;;;;1.27;0.90;;;;;;;28.61;37.51;95640.05;1786990;80;21541;-67
2022/06/06 12:01:00;;;;;;;2.15;1.00;;;;;;;28.77;35.35;95627.80;1787188;80;21023;-68
2022/06/06 12:03:52;;;;;;;1.92;1.07;;;;;;;28.94;37.08;95624.41;1787198;80;21529;-68
2022/06/06 12:06:47;;;;;;;2.10;0.88;;;;;;;29.16;34.96;95620.61;1786636;80;20984;-68
2022/06/06 12:09:53;;;;;;;1.32;1.10;;;;;;;29.59;36.98;95617.95;1787218;80;20983;-68
2022/06/06 12:12:46;;;;;;;1.40;0.80;;;;;;;30.12;36.72;95621.53;1786946;80;20980;-68
2022/06/06 12:15:37;;;;;;;1.55;0.82;;;;;;;30.32;34.88;95627.80;1787038;80;21003;-69
2022/06/06 12:18:56;;;;;;;1.15;0.72;;;;;;;30.52;33.71;95625.00;1784293;80;21010;-69
2022/06/06 12:21:56;;;;;;;1.07;0.90;;;;;;;30.70;33.95;95619.09;1725469;83;21060;-69
2022/06/06 12:24:49;;;;;;;1.55;0.98;;;;;;;31.02;33.09;95615.92;1787335;80;20986;-69
2022/06/06 12:27:48;;;;;;;1.07;0.90;;;;;;;30.78;33.77;95614.25;1787658;80;21033;-69
2022/06/06 12:30:45;;;;;;;0.70;0.70;;;;;;;30.96;32.55;95615.16;1754178;80;21077;-69
2022/06/06 12:33:35;;;;;;;0.72;0.72;;;;;;;31.40;32.87;95619.41;1787552;80;21042;-69
2022/06/06 12:36:09;;;;;;;0.90;0.70;;;;;;;31.90;32.49;95613.83;1770105;80;20978;-68
2022/06/06 12:39:02;;;;;;;4.00;1.15;;;;;;;32.22;32.20;95613.73;1787699;80;21021;-68
2022/06/06 12:41:55;;;;;;;3.00;0.98;;;;;;;32.55;30.90;95613.44;1787784;80;21044;-68
2022/06/06 12:44:45;;;;;;;3.65;0.88;;;;;;;32.58;30.41;95611.73;1787299;80;21040;-68
2022/06/06 12:47:45;;;;;;;1.00;0.80;;;;;;;32.08;32.90;95612.45;1787058;80;20990;-69
2022/06/06 12:50:20;;;;;;;1.77;0.80;;;;;;;32.25;30.60;95620.23;1787650;80;21005;-69
2022/06/06 12:53:29;;;;;;;0.80;0.70;;;;;;;32.50;30.19;95615.80;1787996;80;20973;-69
2022/06/06 12:56:27;;;;;;;1.00;0.93;;;;;;;32.70;29.28;95613.67;1757216;80;20966;-69
2022/06/06 12:59:28;;;;;;;1.00;0.90;;;;;;;31.89;29.94;95616.22;1787789;80;21504;-69
2022/06/06 13:02:16;;;;;;;3.95;0.90;;;;;;;31.27;31.05;95617.52;1787492;80;21068;-69
2022/06/06 13:05:01;;;;;;;1.85;0.90;;;;;;;30.99;31.26;95618.94;1787944;80;20974;-69
2022/06/06 13:07:59;;;;;;;1.45;0.80;;;;;;;31.04;31.72;95619.84;1787596;80;20990;-68
2022/06/06 13:11:09;;;;;;;1.02;0.90;;;;;;;31.37;31.16;95616.93;1757077;80;21022;-68
2022/06/06 13:13:42;;;;;;;1.70;0.90;;;;;;;32.08;31.14;95620.15;1785841;80;21510;-68
2022/06/06 13:16:37;;;;;;;1.12;1.02;;;;;;;32.35;29.98;95605.95;1778418;80;21029;-68